sensor_id;sensor_type;location;lat;lon;timestamp;pressure;altitude;pressure_sealevel;temperature;humidity
49979;BME280;35869;50.990;6.962;2023-04-06T00:01:58;101564.44;;;3.76;75.40
49979;BME280;35869;50.990;6.962;2023-04-06T00:06:58;101563.56;;;3.79;74.69
49979;BME280;35869;50.990;6.962;2023-04-06T00:11:59;101559.31;;;3.71;75.29
49979;BME280;35869;50.990;6.962;2023-04-06T00:16:59;101560.16;;;3.69;75.12
49979;BME280;35869;50.990;6.962;2023-04-06T00:21:59;101563.59;;;3.66;74.74
49979;BME280;35869;50.990;6.962;2023-04-06T00:26:59;101558.50;;;3.54;75.40
49979;BME280;35869;50.990;6.962;2023-04-06T00:31:59;101558.47;;;3.51;74.63
49979;BME280;35869;50.990;6.962;2023-04-06T00:37:00;101553.38;;;3.46;74.62
49979;BME280;35869;50.990;6.962;2023-04-06T00:42:01;101547.38;;;3.43;73.29
49979;BME280;35869;50.990;6.962;2023-04-06T00:47:07;101551.66;;;3.44;74.32
49979;BME280;35869;50.990;6.962;2023-04-06T00:52:07;101541.38;;;3.44;74.00
49979;BME280;35869;50.990;6.962;2023-04-06T00:57:08;101540.53;;;3.37;73.88
49979;BME280;35869;50.990;6.962;2023-04-06T01:02:08;101531.13;;;3.35;73.95
49979;BME280;35869;50.990;6.962;2023-04-06T01:07:08;101525.09;;;3.33;74.49
49979;BME280;35869;50.990;6.962;2023-04-06T01:12:09;101515.72;;;3.29;75.22
49979;BME280;35869;50.990;6.962;2023-04-06T01:17:09;101508.00;;;3.27;75.05
49979;BME280;35869;50.990;6.962;2023-04-06T01:22:15;101507.16;;;3.24;75.44
49979;BME280;35869;50.990;6.962;2023-04-06T01:27:16;101498.59;;;3.23;75.03
49979;BME280;35869;50.990;6.962;2023-04-06T01:32:16;101485.75;;;3.15;75.63
49979;BME280;35869;50.990;6.962;2023-04-06T01:37:16;101490.03;;;3.13;75.74
49979;BME280;35869;50.990;6.962;2023-04-06T01:42:16;101486.63;;;3.13;76.26
49979;BME280;35869;50.990;6.962;2023-04-06T01:47:17;101482.31;;;3.10;76.35
49979;BME280;35869;50.990;6.962;2023-04-06T01:52:17;101478.06;;;3.03;76.38
49979;BME280;35869;50.990;6.962;2023-04-06T01:57:17;101490.06;;;3.01;76.72
49979;BME280;35869;50.990;6.962;2023-04-06T02:02:17;101475.50;;;2.97;77.09
49979;BME280;35869;50.990;6.962;2023-04-06T02:07:18;101478.94;;;2.94;77.27
49979;BME280;35869;50.990;6.962;2023-04-06T02:12:18;101469.53;;;2.89;77.70
49979;BME280;35869;50.990;6.962;2023-04-06T02:17:18;101469.50;;;2.92;76.73
49979;BME280;35869;50.990;6.962;2023-04-06T02:22:18;101469.50;;;2.81;77.97
49979;BME280;35869;50.990;6.962;2023-04-06T02:27:18;101476.38;;;2.75;77.28
49979;BME280;35869;50.990;6.962;2023-04-06T02:32:19;101471.25;;;2.72;77.21
49979;BME280;35869;50.990;6.962;2023-04-06T02:37:19;101465.25;;;2.65;77.24
49979;BME280;35869;50.990;6.962;2023-04-06T02:42:19;101458.41;;;2.61;77.63
49979;BME280;35869;50.990;6.962;2023-04-06T02:47:20;101462.69;;;2.66;77.38
49979;BME280;35869;50.990;6.962;2023-04-06T02:52:20;101459.25;;;2.61;77.55
49979;BME280;35869;50.990;6.962;2023-04-06T02:57:20;101458.41;;;2.53;78.03
49979;BME280;35869;50.990;6.962;2023-04-06T03:02:20;101457.53;;;2.50;78.67
49979;BME280;35869;50.990;6.962;2023-04-06T03:07:20;101454.97;;;2.50;77.54
49979;BME280;35869;50.990;6.962;2023-04-06T03:12:21;101455.84;;;2.41;78.59
49979;BME280;35869;50.990;6.962;2023-04-06T03:17:21;101460.97;;;2.36;78.75
49979;BME280;35869;50.990;6.962;2023-04-06T03:22:21;101452.41;;;2.39;78.39
49979;BME280;35869;50.990;6.962;2023-04-06T03:27:21;101448.13;;;2.32;78.10
49979;BME280;35869;50.990;6.962;2023-04-06T03:32:21;101444.69;;;2.34;77.78
49979;BME280;35869;50.990;6.962;2023-04-06T03:37:22;101450.66;;;2.13;77.16
49979;BME280;35869;50.990;6.962;2023-04-06T03:42:22;101450.63;;;2.04;76.96
49979;BME280;35869;50.990;6.962;2023-04-06T03:47:22;101456.59;;;2.03;77.18
49979;BME280;35869;50.990;6.962;2023-04-06T03:52:22;101449.78;;;2.10;76.59
49979;BME280;35869;50.990;6.962;2023-04-06T03:57:22;101459.19;;;2.09;77.11
49979;BME280;35869;50.990;6.962;2023-04-06T04:02:23;101454.06;;;2.06;77.12
49979;BME280;35869;50.990;6.962;2023-04-06T04:07:23;101454.91;;;2.08;77.07
49979;BME280;35869;50.990;6.962;2023-04-06T04:12:23;101452.31;;;2.04;77.69
49979;BME280;35869;50.990;6.962;2023-04-06T04:17:24;101454.91;;;2.02;77.55
49979;BME280;35869;50.990;6.962;2023-04-06T04:22:24;101454.03;;;2.02;77.56
49979;BME280;35869;50.990;6.962;2023-04-06T04:27:24;101452.31;;;1.96;78.12
49979;BME280;35869;50.990;6.962;2023-04-06T04:32:25;101460.00;;;1.96;77.63
49979;BME280;35869;50.990;6.962;2023-04-06T04:37:25;101456.56;;;1.93;77.62
49979;BME280;35869;50.990;6.962;2023-04-06T04:42:25;101454.88;;;1.98;77.44
49979;BME280;35869;50.990;6.962;2023-04-06T04:47:25;101459.16;;;1.88;78.44
49979;BME280;35869;50.990;6.962;2023-04-06T04:52:25;101456.56;;;1.83;78.65
49979;BME280;35869;50.990;6.962;2023-04-06T04:57:26;101459.06;;;1.76;78.57
49979;BME280;35869;50.990;6.962;2023-04-06T05:02:26;101463.31;;;1.69;78.42
49979;BME280;35869;50.990;6.962;2023-04-06T05:07:26;101462.47;;;1.67;77.81
49979;BME280;35869;50.990;6.962;2023-04-06T05:12:26;101470.16;;;1.67;78.43
49979;BME280;35869;50.990;6.962;2023-04-06T05:17:26;101460.72;;;1.62;78.58
49979;BME280;35869;50.990;6.962;2023-04-06T05:22:27;101457.31;;;1.63;77.51
49979;BME280;35869;50.990;6.962;2023-04-06T05:27:27;101464.16;;;1.60;77.59
49979;BME280;35869;50.990;6.962;2023-04-06T05:32:27;101461.59;;;1.60;77.46
49979;BME280;35869;50.990;6.962;2023-04-06T05:37:28;101464.09;;;1.51;75.82
49979;BME280;35869;50.990;6.962;2023-04-06T05:42:36;101459.84;;;1.58;76.99
49979;BME280;35869;50.990;6.962;2023-04-06T05:47:37;101463.28;;;1.57;75.06
49979;BME280;35869;50.990;6.962;2023-04-06T05:52:37;101470.97;;;1.55;74.65
49979;BME280;35869;50.990;6.962;2023-04-06T05:57:37;101469.28;;;1.60;74.24
49979;BME280;35869;50.990;6.962;2023-04-06T06:02:38;101476.13;;;1.58;74.94
49979;BME280;35869;50.990;6.962;2023-04-06T06:07:38;101472.75;;;1.70;73.70
49979;BME280;35869;50.990;6.962;2023-04-06T06:12:38;101468.44;;;1.68;73.90
49979;BME280;35869;50.990;6.962;2023-04-06T06:17:38;101461.63;;;1.76;74.50
49979;BME280;35869;50.990;6.962;2023-04-06T06:22:38;101455.69;;;1.80;74.29
49979;BME280;35869;50.990;6.962;2023-04-06T06:27:39;101451.44;;;1.83;73.41
49979;BME280;35869;50.990;6.962;2023-04-06T06:32:39;101460.88;;;1.95;73.45
49979;BME280;35869;50.990;6.962;2023-04-06T06:37:39;101459.19;;;2.02;72.88
49979;BME280;35869;50.990;6.962;2023-04-06T06:42:39;101460.88;;;2.04;73.22
49979;BME280;35869;50.990;6.962;2023-04-06T06:47:39;101459.22;;;2.22;72.45
49979;BME280;35869;50.990;6.962;2023-04-06T06:52:40;101450.66;;;2.23;73.12
49979;BME280;35869;50.990;6.962;2023-04-06T06:57:40;101452.38;;;2.27;73.24
49979;BME280;35869;50.990;6.962;2023-04-06T07:02:40;101443.00;;;2.43;73.11
49979;BME280;35869;50.990;6.962;2023-04-06T07:07:41;101449.00;;;2.54;72.91
49979;BME280;35869;50.990;6.962;2023-04-06T07:12:41;101440.44;;;2.65;72.59
49979;BME280;35869;50.990;6.962;2023-04-06T07:17:41;101436.16;;;2.90;71.78
49979;BME280;35869;50.990;6.962;2023-04-06T07:22:43;101430.09;;;3.20;71.87
49979;BME280;35869;50.990;6.962;2023-04-06T07:27:43;101427.41;;;3.56;70.27
49979;BME280;35869;50.990;6.962;2023-04-06T07:32:43;101427.34;;;3.76;70.87
49979;BME280;35869;50.990;6.962;2023-04-06T07:37:43;101437.47;;;4.00;70.22
49979;BME280;35869;50.990;6.962;2023-04-06T07:42:43;101432.00;;;4.52;70.96
49979;BME280;35869;50.990;6.962;2023-04-06T07:47:44;101428.19;;;4.91;69.31
49979;BME280;35869;50.990;6.962;2023-04-06T07:52:44;101420.22;;;5.17;69.29
49979;BME280;35869;50.990;6.962;2023-04-06T07:57:44;101416.38;;;5.50;66.00
49979;BME280;35869;50.990;6.962;2023-04-06T08:02:44;101415.34;;;5.65;66.76
49979;BME280;35869;50.990;6.962;2023-04-06T08:07:44;101407.28;;;5.93;66.31
49979;BME280;35869;50.990;6.962;2023-04-06T08:12:45;101410.38;;;6.16;66.79
49979;BME280;35869;50.990;6.962;2023-04-06T08:17:45;101411.13;;;6.23;65.93
49979;BME280;35869;50.990;6.962;2023-04-06T08:22:45;101403.63;;;6.60;63.29
49979;BME280;35869;50.990;6.962;2023-04-06T08:27:45;101401.75;;;6.68;66.84
49979;BME280;35869;50.990;6.962;2023-04-06T08:32:46;101397.06;;;7.36;62.05
49979;BME280;35869;50.990;6.962;2023-04-06T08:37:46;101399.31;;;7.53;61.93
49979;BME280;35869;50.990;6.962;2023-04-06T08:42:54;101400.59;;;7.72;62.24
49979;BME280;35869;50.990;6.962;2023-04-06T08:47:57;101389.56;;;8.03;60.27
49979;BME280;35869;50.990;6.962;2023-04-06T08:52:59;101381.69;;;8.09;57.68
49979;BME280;35869;50.990;6.962;2023-04-06T08:58:00;101381.25;;;8.26;58.60
49979;BME280;35869;50.990;6.962;2023-04-06T09:03:00;101377.97;;;8.57;58.36
49979;BME280;35869;50.990;6.962;2023-04-06T09:08:01;101375.41;;;8.88;57.16
49979;BME280;35869;50.990;6.962;2023-04-06T09:13:05;101378.34;;;9.06;56.20
49979;BME280;35869;50.990;6.962;2023-04-06T09:18:05;101374.53;;;9.20;58.27
49979;BME280;35869;50.990;6.962;2023-04-06T09:23:05;101372.94;;;9.16;61.16
49979;BME280;35869;50.990;6.962;2023-04-06T09:28:05;101373.44;;;9.28;60.14
49979;BME280;35869;50.990;6.962;2023-04-06T09:33:06;101361.91;;;9.95;56.14
49979;BME280;35869;50.990;6.962;2023-04-06T09:38:11;101353.09;;;9.44;63.32
49979;BME280;35869;50.990;6.962;2023-04-06T09:43:11;101351.97;;;10.09;59.12
49979;BME280;35869;50.990;6.962;2023-04-06T09:48:11;101342.94;;;10.19;57.82
49979;BME280;35869;50.990;6.962;2023-04-06T09:53:12;101344.66;;;10.72;56.61
49979;BME280;35869;50.990;6.962;2023-04-06T09:58:13;101349.53;;;11.06;56.03
49979;BME280;35869;50.990;6.962;2023-04-06T10:03:36;101340.97;;;11.02;58.74
49979;BME280;35869;50.990;6.962;2023-04-06T10:08:42;101340.34;;;11.20;58.59
49979;BME280;35869;50.990;6.962;2023-04-06T10:13:47;101335.94;;;10.74;59.68
49979;BME280;35869;50.990;6.962;2023-04-06T10:18:52;101330.47;;;11.96;54.77
49979;BME280;35869;50.990;6.962;2023-04-06T10:23:58;101327.56;;;12.25;54.39
49979;BME280;35869;50.990;6.962;2023-04-06T10:29:03;101341.47;;;11.59;60.62
49979;BME280;35869;50.990;6.962;2023-04-06T10:34:03;101329.22;;;12.06;61.36
49979;BME280;35869;50.990;6.962;2023-04-06T10:39:05;101334.88;;;12.78;55.63
49979;BME280;35869;50.990;6.962;2023-04-06T10:44:05;101319.31;;;12.96;54.85
49979;BME280;35869;50.990;6.962;2023-04-06T10:49:12;101321.28;;;13.10;54.88
49979;BME280;35869;50.990;6.962;2023-04-06T10:54:12;101301.38;;;13.27;52.82
49979;BME280;35869;50.990;6.962;2023-04-06T10:59:13;101313.69;;;13.62;54.61
49979;BME280;35869;50.990;6.962;2023-04-06T11:04:19;101307.47;;;13.64;55.79
49979;BME280;35869;50.990;6.962;2023-04-06T11:09:27;101302.09;;;12.92;58.58
49979;BME280;35869;50.990;6.962;2023-04-06T11:14:27;101300.50;;;13.46;58.99
49979;BME280;35869;50.990;6.962;2023-04-06T11:19:28;101308.50;;;13.43;53.95
49979;BME280;35869;50.990;6.962;2023-04-06T11:24:28;101306.56;;;13.46;57.77
49979;BME280;35869;50.990;6.962;2023-04-06T11:29:29;101301.22;;;13.30;57.32
49979;BME280;35869;50.990;6.962;2023-04-06T11:34:32;101298.66;;;13.48;60.16
49979;BME280;35869;50.990;6.962;2023-04-06T11:39:42;101289.19;;;13.64;59.77
49979;BME280;35869;50.990;6.962;2023-04-06T11:44:43;101287.22;;;13.13;54.94
49979;BME280;35869;50.990;6.962;2023-04-06T11:49:44;101288.63;;;13.01;53.67
49979;BME280;35869;50.990;6.962;2023-04-06T11:54:45;101285.13;;;13.40;55.00
49979;BME280;35869;50.990;6.962;2023-04-06T11:59:46;101288.13;;;13.68;53.25
49979;BME280;35869;50.990;6.962;2023-04-06T12:04:46;101288.78;;;13.36;54.19
49979;BME280;35869;50.990;6.962;2023-04-06T12:09:47;101284.75;;;13.66;55.60
49979;BME280;35869;50.990;6.962;2023-04-06T12:14:47;101274.72;;;13.57;53.63
49979;BME280;35869;50.990;6.962;2023-04-06T12:19:48;101278.59;;;13.31;54.32
49979;BME280;35869;50.990;6.962;2023-04-06T12:24:48;101278.78;;;13.45;55.98
49979;BME280;35869;50.990;6.962;2023-04-06T12:29:48;101276.81;;;13.31;52.62
49979;BME280;35869;50.990;6.962;2023-04-06T12:34:48;101273.72;;;13.78;57.07
49979;BME280;35869;50.990;6.962;2023-04-06T12:39:48;101273.72;;;13.59;53.82
49979;BME280;35869;50.990;6.962;2023-04-06T12:44:48;101280.41;;;14.01;52.62
49979;BME280;35869;50.990;6.962;2023-04-06T12:49:49;101272.59;;;13.65;56.59
49979;BME280;35869;50.990;6.962;2023-04-06T12:54:49;101269.63;;;13.73;55.94
49979;BME280;35869;50.990;6.962;2023-04-06T12:59:49;101275.06;;;13.32;54.20
49979;BME280;35869;50.990;6.962;2023-04-06T13:04:49;101271.88;;;13.98;52.98
49979;BME280;35869;50.990;6.962;2023-04-06T13:09:51;101274.78;;;13.92;55.13
49979;BME280;35869;50.990;6.962;2023-04-06T13:14:51;101271.25;;;13.93;53.36
49979;BME280;35869;50.990;6.962;2023-04-06T13:19:51;101268.47;;;13.61;53.86
49979;BME280;35869;50.990;6.962;2023-04-06T13:24:51;101272.34;;;13.52;54.45
49979;BME280;35869;50.990;6.962;2023-04-06T13:29:52;101279.97;;;13.19;53.68
49979;BME280;35869;50.990;6.962;2023-04-06T13:34:54;101286.00;;;13.21;54.56
49979;BME280;35869;50.990;6.962;2023-04-06T13:39:55;101280.38;;;13.48;55.35
49979;BME280;35869;50.990;6.962;2023-04-06T13:44:55;101277.25;;;13.58;54.31
49979;BME280;35869;50.990;6.962;2023-04-06T13:49:55;101276.16;;;13.07;53.78
49979;BME280;35869;50.990;6.962;2023-04-06T13:54:55;101291.84;;;13.26;55.29
49979;BME280;35869;50.990;6.962;2023-04-06T13:59:55;101290.53;;;12.78;54.31
49979;BME280;35869;50.990;6.962;2023-04-06T14:04:56;101289.78;;;12.75;55.19
49979;BME280;35869;50.990;6.962;2023-04-06T14:09:56;101284.09;;;12.86;55.70
49979;BME280;35869;50.990;6.962;2023-04-06T14:14:56;101296.25;;;12.66;54.95
49979;BME280;35869;50.990;6.962;2023-04-06T14:19:56;101292.03;;;12.23;55.31
49979;BME280;35869;50.990;6.962;2023-04-06T14:24:57;101295.16;;;12.31;56.71
49979;BME280;35869;50.990;6.962;2023-04-06T14:29:57;101308.97;;;12.13;57.94
49979;BME280;35869;50.990;6.962;2023-04-06T14:34:57;101302.47;;;12.23;59.10
49979;BME280;35869;50.990;6.962;2023-04-06T14:39:57;101299.22;;;12.38;58.91
49979;BME280;35869;50.990;6.962;2023-04-06T14:44:57;101298.19;;;12.00;61.03
49979;BME280;35869;50.990;6.962;2023-04-06T14:49:58;101301.03;;;11.72;61.96
49979;BME280;35869;50.990;6.962;2023-04-06T14:54:58;101298.97;;;11.58;63.11
49979;BME280;35869;50.990;6.962;2023-04-06T14:59:58;101298.22;;;11.55;64.41
49979;BME280;35869;50.990;6.962;2023-04-06T15:04:58;101297.75;;;11.45;64.69
49979;BME280;35869;50.990;6.962;2023-04-06T15:09:59;101291.94;;;11.60;65.10
49979;BME280;35869;50.990;6.962;2023-04-06T15:14:59;101290.25;;;11.59;65.55
49979;BME280;35869;50.990;6.962;2023-04-06T15:19:59;101285.03;;;11.37;67.42
49979;BME280;35869;50.990;6.962;2023-04-06T15:24:59;101285.00;;;11.39;68.20
49979;BME280;35869;50.990;6.962;2023-04-06T15:29:59;101284.28;;;11.12;70.32
49979;BME280;35869;50.990;6.962;2023-04-06T15:35:00;101282.25;;;10.97;70.40
49979;BME280;35869;50.990;6.962;2023-04-06T15:40:00;101283.81;;;11.01;72.49
49979;BME280;35869;50.990;6.962;2023-04-06T15:45:00;101281.16;;;10.79;73.15
49979;BME280;35869;50.990;6.962;2023-04-06T15:50:00;101282.72;;;10.59;75.42
49979;BME280;35869;50.990;6.962;2023-04-06T15:55:05;101286.75;;;10.68;74.84
49979;BME280;35869;50.990;6.962;2023-04-06T16:00:06;101278.38;;;10.60;75.51
49979;BME280;35869;50.990;6.962;2023-04-06T16:05:07;101286.38;;;10.54;77.10
49979;BME280;35869;50.990;6.962;2023-04-06T16:10:08;101292.84;;;10.42;79.71
49979;BME280;35869;50.990;6.962;2023-04-06T16:15:08;101289.47;;;10.40;78.52
49979;BME280;35869;50.990;6.962;2023-04-06T16:20:09;101284.56;;;10.31;78.72
49979;BME280;35869;50.990;6.962;2023-04-06T16:25:09;101297.41;;;10.09;80.89
49979;BME280;35869;50.990;6.962;2023-04-06T16:30:10;101295.66;;;10.09;82.53
49979;BME280;35869;50.990;6.962;2023-04-06T16:35:10;101294.31;;;9.98;81.87
49979;BME280;35869;50.990;6.962;2023-04-06T16:40:10;101300.31;;;10.00;80.93
49979;BME280;35869;50.990;6.962;2023-04-06T16:45:11;101296.41;;;9.86;81.62
49979;BME280;35869;50.990;6.962;2023-04-06T16:50:13;101292.16;;;9.84;81.58
49979;BME280;35869;50.990;6.962;2023-04-06T16:55:15;101294.16;;;9.76;82.79
49979;BME280;35869;50.990;6.962;2023-04-06T17:00:15;101297.84;;;9.69;81.92
49979;BME280;35869;50.990;6.962;2023-04-06T17:05:15;101288.63;;;9.58;83.91
49979;BME280;35869;50.990;6.962;2023-04-06T17:10:16;101292.28;;;9.53;83.95
49979;BME280;35869;50.990;6.962;2023-04-06T17:15:16;101284.03;;;9.40;83.89
49979;BME280;35869;50.990;6.962;2023-04-06T17:20:17;101284.03;;;9.40;83.63
49979;BME280;35869;50.990;6.962;2023-04-06T17:25:18;101279.03;;;9.34;84.54
49979;BME280;35869;50.990;6.962;2023-04-06T17:30:18;101284.28;;;9.31;84.59
49979;BME280;35869;50.990;6.962;2023-04-06T17:35:18;101270.53;;;9.29;85.18
49979;BME280;35869;50.990;6.962;2023-04-06T17:40:19;101275.09;;;9.21;86.48
49979;BME280;35869;50.990;6.962;2023-04-06T17:45:19;101276.13;;;9.15;87.27
49979;BME280;35869;50.990;6.962;2023-04-06T17:50:19;101278.13;;;9.05;85.88
49979;BME280;35869;50.990;6.962;2023-04-06T17:55:19;101275.78;;;8.98;87.54
49979;BME280;35869;50.990;6.962;2023-04-06T18:00:20;101284.53;;;8.94;85.21
49979;BME280;35869;50.990;6.962;2023-04-06T18:05:20;101283.84;;;8.87;87.23
49979;BME280;35869;50.990;6.962;2023-04-06T18:10:21;101281.66;;;8.72;90.07
49979;BME280;35869;50.990;6.962;2023-04-06T18:15:22;101282.72;;;8.65;89.62
49979;BME280;35869;50.990;6.962;2023-04-06T18:20:22;101272.53;;;8.59;90.79
49979;BME280;35869;50.990;6.962;2023-04-06T18:25:22;101277.63;;;8.62;89.83
49979;BME280;35869;50.990;6.962;2023-04-06T18:30:22;101275.75;;;8.67;89.28
49979;BME280;35869;50.990;6.962;2023-04-06T18:35:22;101267.25;;;8.62;89.31
49979;BME280;35869;50.990;6.962;2023-04-06T18:40:30;101264.94;;;8.52;89.72
49979;BME280;35869;50.990;6.962;2023-04-06T18:45:32;101268.44;;;8.50;90.24
49979;BME280;35869;50.990;6.962;2023-04-06T18:50:32;101265.06;;;8.48;90.75
49979;BME280;35869;50.990;6.962;2023-04-06T18:55:33;101268.31;;;8.54;89.35
49979;BME280;35869;50.990;6.962;2023-04-06T19:00:33;101267.75;;;8.43;90.06
49979;BME280;35869;50.990;6.962;2023-04-06T19:05:33;101271.19;;;8.45;91.06
49979;BME280;35869;50.990;6.962;2023-04-06T19:10:34;101265.16;;;8.45;90.72
49979;BME280;35869;50.990;6.962;2023-04-06T19:15:35;101260.25;;;8.33;91.52
49979;BME280;35869;50.990;6.962;2023-04-06T19:20:35;101262.13;;;8.27;90.54
49979;BME280;35869;50.990;6.962;2023-04-06T19:25:35;101261.28;;;8.27;92.33
49979;BME280;35869;50.990;6.962;2023-04-06T19:30:36;101255.19;;;8.28;92.30
49979;BME280;35869;50.990;6.962;2023-04-06T19:35:37;101251.81;;;8.24;94.21
49979;BME280;35869;50.990;6.962;2023-04-06T19:40:38;101255.25;;;8.25;92.35
49979;BME280;35869;50.990;6.962;2023-04-06T19:45:38;101247.66;;;8.19;92.59
49979;BME280;35869;50.990;6.962;2023-04-06T19:50:38;101239.69;;;8.26;93.19
49979;BME280;35869;50.990;6.962;2023-04-06T19:55:39;101240.78;;;8.18;93.30
49979;BME280;35869;50.990;6.962;2023-04-06T20:00:39;101240.84;;;8.15;93.35
49979;BME280;35869;50.990;6.962;2023-04-06T20:05:40;101235.66;;;8.15;93.30
49979;BME280;35869;50.990;6.962;2023-04-06T20:10:40;101234.81;;;8.14;94.44
49979;BME280;35869;50.990;6.962;2023-04-06T20:15:41;101232.53;;;8.04;94.51
49979;BME280;35869;50.990;6.962;2023-04-06T20:20:41;101227.25;;;8.07;95.43
49979;BME280;35869;50.990;6.962;2023-04-06T20:25:41;101223.78;;;8.08;94.96
49979;BME280;35869;50.990;6.962;2023-04-06T20:30:42;101227.25;;;8.07;94.02
49979;BME280;35869;50.990;6.962;2023-04-06T20:35:42;101217.75;;;8.07;94.11
49979;BME280;35869;50.990;6.962;2023-04-06T20:40:44;101219.59;;;8.04;94.52
49979;BME280;35869;50.990;6.962;2023-04-06T20:45:45;101219.66;;;8.00;94.15
49979;BME280;35869;50.990;6.962;2023-04-06T20:50:45;101217.81;;;8.06;94.81
49979;BME280;35869;50.990;6.962;2023-04-06T20:55:45;101210.03;;;8.06;93.45
49979;BME280;35869;50.990;6.962;2023-04-06T21:00:49;101205.75;;;8.05;93.65
49979;BME280;35869;50.990;6.962;2023-04-06T21:05:51;101203.16;;;8.05;94.46
49979;BME280;35869;50.990;6.962;2023-04-06T21:10:51;101194.66;;;7.99;95.11
49979;BME280;35869;50.990;6.962;2023-04-06T21:15:51;101188.44;;;8.07;95.22
49979;BME280;35869;50.990;6.962;2023-04-06T21:20:51;101188.72;;;7.96;95.29
49979;BME280;35869;50.990;6.962;2023-04-06T21:25:52;101184.25;;;8.01;94.97
49979;BME280;35869;50.990;6.962;2023-04-06T21:30:53;101179.34;;;7.92;95.82
49979;BME280;35869;50.990;6.962;2023-04-06T21:35:53;101183.47;;;7.99;94.93
49979;BME280;35869;50.990;6.962;2023-04-06T21:40:55;101170.56;;;7.97;95.12
49979;BME280;35869;50.990;6.962;2023-04-06T21:45:55;101173.97;;;7.99;96.06
49979;BME280;35869;50.990;6.962;2023-04-06T21:50:55;101176.53;;;7.99;96.33
49979;BME280;35869;50.990;6.962;2023-04-06T21:55:55;101171.44;;;7.96;95.54
49979;BME280;35869;50.990;6.962;2023-04-06T22:00:55;101167.00;;;8.01;95.62
49979;BME280;35869;50.990;6.962;2023-04-06T22:05:56;101163.66;;;7.98;97.05
49979;BME280;35869;50.990;6.962;2023-04-06T22:10:56;101161.06;;;7.96;95.64
49979;BME280;35869;50.990;6.962;2023-04-06T22:15:56;101155.78;;;8.01;95.68
49979;BME280;35869;50.990;6.962;2023-04-06T22:20:57;101150.53;;;8.04;95.83
49979;BME280;35869;50.990;6.962;2023-04-06T22:25:57;101148.97;;;7.97;95.37
49979;BME280;35869;50.990;6.962;2023-04-06T22:30:58;101149.88;;;7.97;95.66
49979;BME280;35869;50.990;6.962;2023-04-06T22:35:58;101138.63;;;7.97;96.26
49979;BME280;35869;50.990;6.962;2023-04-06T22:40:58;101144.63;;;7.99;97.00
49979;BME280;35869;50.990;6.962;2023-04-06T22:45:58;101138.72;;;7.94;96.22
49979;BME280;35869;50.990;6.962;2023-04-06T22:50:58;101144.13;;;7.85;97.98
49979;BME280;35869;50.990;6.962;2023-04-06T22:55:59;101137.06;;;7.91;97.93
49979;BME280;35869;50.990;6.962;2023-04-06T23:00:59;101128.38;;;7.94;98.07
49979;BME280;35869;50.990;6.962;2023-04-06T23:05:59;101121.53;;;7.91;98.59
49979;BME280;35869;50.990;6.962;2023-04-06T23:10:59;101125.53;;;8.03;98.14
49979;BME280;35869;50.990;6.962;2023-04-06T23:15:59;101126.81;;;7.88;97.16
49979;BME280;35869;50.990;6.962;2023-04-06T23:20:59;101123.16;;;7.95;97.27
49979;BME280;35869;50.990;6.962;2023-04-06T23:26:00;101118.94;;;7.91;98.79
49979;BME280;35869;50.990;6.962;2023-04-06T23:31:00;101111.91;;;7.96;99.30
49979;BME280;35869;50.990;6.962;2023-04-06T23:36:00;101114.38;;;8.01;98.69
49979;BME280;35869;50.990;6.962;2023-04-06T23:41:00;101113.75;;;7.93;96.70
49979;BME280;35869;50.990;6.962;2023-04-06T23:46:01;101105.13;;;7.92;96.43
49979;BME280;35869;50.990;6.962;2023-04-06T23:51:01;101115.44;;;7.94;96.78
49979;BME280;35869;50.990;6.962;2023-04-06T23:56:01;101114.41;;;7.99;97.75
